Saturday, November 18, 2017, 10:04 PM EST
Back to Local

KBGM, Binghamton Regional Airport

Location: Johnson City, NY, United States Lat: 42.2
Local Time: 10:04 PM EST ( 3:04 GMT) Lon: -75.983
Time Zone: US/Eastern Elev: 1637 ft

Show me the last for .
Show Decoded

2017-11-18 21:53 METAR KBGM 190253Z 18010KT 6SM RA BR BKN045 06/04 A2929 RMK AO2 RAB49 SLP928
                 P0000 60004 T00560044 58031 =
2017-11-18 20:53 METAR KBGM 190153Z 18013G19KT 10SM OVC039 05/04 A2933 RMK AO2 RAE09B16E45 SLP942
                 P0003 T00500039 =
2017-11-18 20:19 METAR KBGM 190119Z 18008KT 10SM -RA FEW008 OVC038 04/04 A2936 RMK AO2 RAE09B16
                 P0001 T00440039 =
2017-11-18 20:10 METAR KBGM 190110Z 18008KT 10SM FEW010 SCT013 OVC038 04/04 A2937 RMK AO2 RAE09
                 P0001 T00440039 =
2017-11-18 19:53 METAR KBGM 190053Z 19008G16KT 7SM -RA FEW006 BKN010 OVC038 04/04 A2939 RMK AO2
                 SLP962 P0001 T00440039 =
2017-11-18 19:51 METAR KBGM 190051Z 19009G16KT 8SM -RA SCT006 BKN010 OVC038 04/04 A2939 RMK AO2
                 P0001 =
2017-11-18 19:34 METAR KBGM 190034Z 19010G15KT 10SM -RA BKN006 OVC040 04/03 A2939 RMK AO2 CIG
                 003V009 P0001 T00440033 =
2017-11-18 18:53 METAR KBGM 182353Z 19011KT 6SM -RA BR OVC004 04/03 A2942 RMK AO2 RAE06B17E27B46
                 CIG 002V007 SLP973 P0000 60013 T00390033 10039 20028 55014 =
2017-11-18 18:51 METAR KBGM 182351Z 18008KT 6SM -RA BR OVC004 04/03 A2942 RMK AO2 RAE06B17E27B46
                 CIG 002V007 P0000 =
2017-11-18 18:16 METAR KBGM 182316Z 16010KT 9SM OVC006 04/03 A2942 RMK AO2 RAE06 CIG 003V008
                 PRESFR P0000 T00390028 =
2017-11-18 18:00 METAR KBGM 182300Z 17010KT 8SM -RA OVC004 03/03 A2944 RMK AO2 CIG 003V008 P0000
                 T00330028 =
2017-11-18 17:53 METAR KBGM 182253Z 17009KT 7SM -RA OVC005 03/03 A2945 RMK AO2 CIG 003V008 SLP985
                 P0005 T00330028 =
2017-11-18 16:53 METAR KBGM 182153Z 17010KT 4SM RA BR OVC003 03/03 A2946 RMK AO2 CIG 002V006
                 SLP990 P0007 T00330028 =
2017-11-18 16:33 METAR KBGM 182133Z 17008KT 3SM -RA BR OVC002 03/03 A2947 RMK AO2 CIG 002V007
                 PRESFR P0003 T00330028 =
2017-11-18 16:17 METAR KBGM 182117Z 17008KT 2 1/2SM -RA BR OVC002 03/03 A2949 RMK AO2 P0001
                 T00280028 =
2017-11-18 15:53 METAR KBGM 182053Z 17008KT 3SM -RA BR OVC003 03/02 A2950 RMK AO2 RAB03E23B41
                 SLP004 P0000 60001 T00280022 58022 =
2017-11-18 15:22 METAR KBGM 182022Z 16008KT 5SM -RA BR OVC004 03/02 A2951 RMK AO2 RAB03 CIG
                 002V007 P0000 T00280022 =
2017-11-18 14:53 METAR KBGM 181953Z AUTO 16007KT 9SM OVC005 03/02 A2952 RMK AO2 RAE11 CIG 004V009
                 SLP012 P0001 T00330022 =
2017-11-18 14:19 METAR KBGM 181919Z 17008KT 10SM OVC009 03/02 A2955 RMK AO2 RAE11 P0001 T00280017
                 =
2017-11-18 13:53 METAR KBGM 181853Z 20008KT 10SM -RA OVC010 03/02 A2957 RMK AO2 RAE16B33 CIG
                 009V013 SLP027 P0000 T00330017 =
2017-11-18 13:26 METAR KBGM 181826Z 18007KT 10SM OVC013 03/01 A2956 RMK AO2 RAE16 P0000 T00330011
                 =
2017-11-18 12:53 METAR KBGM 181753Z 19011KT 10SM -RA OVC017 03/00 A2957 RMK AO2 RAE33B50 SLP027
                 P0001 60001 T00330000 10044 20000 58027 =
2017-11-18 11:53 METAR KBGM 181653Z 19008G18KT 10SM -RA BKN028 OVC033 04/M02 A2961 RMK AO2 RAB36
                 SLP043 P0000 T00391017 =
2017-11-18 10:53 METAR KBGM 181553Z 21011KT 180V240 10SM OVC048 04/M04 A2965 RMK AO2 RAB28E37
                 SLP055 P0000 T00441039 =
2017-11-18 09:53 METAR KBGM 181453Z 15012KT 10SM OVC065 03/M04 A2966 RMK AO2 PRESFR SLP056 60000
                 T00281044 58040 =
2017-11-18 08:53 METAR KBGM 181353Z 16008KT 10SM FEW055 OVC090 02/M05 A2972 RMK AO2 RAB14E43
                 PRESFR SLP079 P0000 T00171050 =
2017-11-18 07:53 METAR KBGM 181253Z 17007KT 10SM BKN110 01/M06 A2976 RMK AO2 SLP095 T00061056 =
2017-11-18 06:53 METAR KBGM 181153Z 17006KT 10SM CLR 00/M06 A2978 RMK AO2 SLP101 T00001061 10000
                 21039 58023 =
2017-11-18 05:53 METAR KBGM 181053Z 16005KT 10SM CLR M01/M07 A2980 RMK AO2 SLP111 T10111072 =
2017-11-18 04:53 METAR KBGM 180953Z AUTO 16005KT 10SM CLR M02/M08 A2983 RMK AO2 SLP118 T10221083
                 =
2017-11-18 03:53 METAR KBGM 180853Z AUTO 15005KT 10SM CLR M03/M08 A2985 RMK AO2 SLP126 T10331083
                 56027 =
2017-11-18 02:53 METAR KBGM 180753Z AUTO 17007KT 10SM CLR M03/M08 A2989 RMK AO2 SLP138 T10331083
                 =
2017-11-18 01:53 METAR KBGM 180653Z AUTO 16006KT 10SM CLR M03/M08 A2989 RMK AO2 SLP140 T10331083
                 =
2017-11-18 00:53 METAR KBGM 180553Z AUTO 16006KT 10SM FEW100 M03/M08 A2993 RMK AO2 SLP154
                 T10331083 11011 21044 58023 =
2017-11-17 23:53 METAR KBGM 180453Z 14005KT 10SM CLR M04/M09 A2996 RMK AO2 SLP165 T10391089
                 400171039 =
2017-11-17 22:53 METAR KBGM 180353Z 17004KT 10SM CLR M03/M09 A2999 RMK AO2 SLP177 T10331089 =

Support USWX by starting your Amazon purchase here.